createdAt,value
2019-05-19T00:01:35.232Z,58.40
2019-05-19T00:04:04.269Z,58.55
2019-05-19T00:06:33.378Z,58.65
2019-05-19T00:09:02.503Z,58.68
2019-05-19T00:11:31.644Z,58.53
2019-05-19T00:14:00.764Z,58.53
2019-05-19T00:16:29.865Z,58.57
2019-05-19T00:18:58.954Z,58.63
2019-05-19T00:21:27.988Z,58.67
2019-05-19T00:23:59.691Z,58.67
2019-05-19T00:26:27.853Z,58.73
2019-05-19T00:28:56.849Z,58.70
2019-05-19T00:31:26.066Z,58.81
2019-05-19T00:33:55.128Z,58.84
2019-05-19T00:36:24.244Z,58.96
2019-05-19T00:38:53.294Z,59.08
2019-05-19T00:41:22.417Z,59.12
2019-05-19T00:43:51.430Z,59.17
2019-05-19T00:46:20.530Z,59.30
2019-05-19T00:48:49.591Z,59.32
2019-05-19T00:51:18.698Z,59.37
2019-05-19T00:53:47.795Z,59.38
2019-05-19T00:56:16.835Z,59.45
2019-05-19T00:58:45.947Z,59.46
2019-05-19T01:01:15.040Z,59.50
2019-05-19T01:03:44.176Z,59.52
2019-05-19T01:06:13.206Z,59.59
2019-05-19T01:08:42.281Z,59.68
2019-05-19T01:11:13.800Z,59.72
2019-05-19T01:13:43.295Z,59.75
2019-05-19T01:16:13.480Z,59.77
2019-05-19T01:18:44.555Z,59.79
2019-05-19T01:21:17.806Z,59.80
2019-05-19T01:23:47.352Z,59.86
2019-05-19T01:26:16.888Z,59.80
2019-05-19T01:28:46.647Z,59.83
2019-05-19T01:31:16.258Z,59.89
2019-05-19T01:33:48.314Z,59.96
2019-05-19T01:36:18.825Z,59.97
2019-05-19T01:38:49.067Z,59.99
2019-05-19T01:41:19.977Z,59.98
2019-05-19T01:43:49.305Z,59.99
2019-05-19T01:46:18.440Z,60.03
2019-05-19T01:48:47.457Z,60.04
2019-05-19T01:51:16.501Z,60.01
2019-05-19T01:53:45.539Z,59.99
2019-05-19T01:56:14.613Z,59.93
2019-05-19T01:58:43.711Z,60.00
2019-05-19T02:01:12.741Z,60.14
2019-05-19T02:03:41.828Z,60.32
2019-05-19T02:06:10.822Z,60.49
2019-05-19T02:08:39.898Z,60.59
2019-05-19T02:11:08.968Z,60.67
2019-05-19T02:13:38.037Z,60.70
2019-05-19T02:16:07.092Z,60.71
2019-05-19T02:18:36.186Z,60.71
2019-05-19T02:21:05.238Z,60.80
2019-05-19T02:23:34.284Z,60.87
2019-05-19T02:26:03.348Z,60.94
2019-05-19T02:28:32.444Z,61.02
2019-05-19T02:31:01.589Z,61.13
2019-05-19T02:33:30.663Z,61.09
2019-05-19T02:35:59.713Z,61.11
2019-05-19T02:38:28.782Z,61.16
2019-05-19T02:40:57.917Z,61.16
2019-05-19T02:43:26.998Z,61.16
2019-05-19T02:45:59.564Z,61.14
2019-05-19T02:48:28.995Z,61.13
2019-05-19T02:50:58.051Z,61.19
2019-05-19T02:53:27.196Z,61.20
2019-05-19T02:55:56.258Z,61.25
2019-05-19T02:58:25.335Z,61.21
2019-05-19T03:00:54.522Z,61.19
2019-05-19T03:03:23.632Z,61.18
2019-05-19T03:05:52.675Z,61.17
2019-05-19T03:08:21.702Z,61.16
2019-05-19T03:10:50.799Z,61.14
2019-05-19T03:13:19.836Z,61.21
2019-05-19T03:15:48.997Z,61.29
2019-05-19T03:18:18.098Z,61.33
2019-05-19T03:20:47.125Z,61.35
2019-05-19T03:23:16.167Z,61.34
2019-05-19T03:25:45.261Z,61.31
2019-05-19T03:28:14.349Z,61.37
2019-05-19T03:30:59.200Z,61.40
2019-05-19T03:33:30.334Z,61.42
2019-05-19T03:35:59.469Z,61.48
2019-05-19T03:38:28.566Z,61.51
2019-05-19T03:40:57.661Z,61.51
2019-05-19T03:43:26.700Z,61.58
2019-05-19T03:45:55.781Z,61.62
2019-05-19T03:48:24.830Z,61.61
2019-05-19T03:50:53.879Z,61.60
2019-05-19T03:53:22.933Z,61.63
2019-05-19T03:55:52.027Z,61.67
2019-05-19T03:58:21.125Z,61.70
2019-05-19T04:00:50.504Z,61.67
2019-05-19T04:03:19.565Z,61.63
2019-05-19T04:05:48.697Z,61.56
2019-05-19T04:08:17.772Z,61.52
2019-05-19T04:10:46.786Z,61.52
2019-05-19T04:13:15.800Z,61.52
2019-05-19T04:15:44.896Z,61.48
2019-05-19T04:18:13.920Z,61.37
2019-05-19T04:20:43.002Z,61.43
2019-05-19T04:23:12.093Z,61.43
2019-05-19T04:25:41.166Z,61.39
2019-05-19T04:28:10.198Z,61.31
2019-05-19T04:30:39.286Z,61.29
2019-05-19T04:33:08.351Z,61.21
2019-05-19T04:35:37.472Z,61.25
2019-05-19T04:38:06.563Z,61.17
2019-05-19T04:40:35.650Z,61.09
2019-05-19T04:43:04.680Z,60.94
2019-05-19T04:45:33.740Z,60.80
2019-05-19T04:48:02.875Z,60.63
2019-05-19T04:50:31.913Z,60.56
2019-05-19T04:53:01.091Z,60.45
2019-05-19T04:55:30.151Z,60.45
2019-05-19T04:57:59.209Z,60.34
2019-05-19T05:00:28.286Z,60.23
2019-05-19T05:02:57.401Z,60.05
2019-05-19T05:05:26.419Z,59.82
2019-05-19T05:07:55.487Z,59.59
2019-05-19T05:10:24.574Z,59.48
2019-05-19T05:12:53.662Z,59.27
2019-05-19T05:15:22.685Z,59.24
2019-05-19T05:17:51.765Z,58.95
2019-05-19T05:20:20.832Z,58.58
2019-05-19T05:22:49.913Z,58.30
2019-05-19T05:25:18.996Z,58.05
2019-05-19T05:27:48.117Z,58.05
2019-05-19T05:30:17.153Z,57.82
2019-05-19T05:32:46.208Z,57.41
2019-05-19T05:35:15.273Z,57.04
2019-05-19T05:37:44.348Z,56.60
2019-05-19T05:40:13.455Z,56.31
2019-05-19T05:42:42.538Z,55.87
2019-05-19T05:45:11.719Z,55.49
2019-05-19T05:47:40.830Z,55.46
2019-05-19T05:50:09.858Z,55.17
2019-05-19T05:52:39.273Z,54.84
2019-05-19T05:55:08.377Z,54.11
2019-05-19T05:57:37.464Z,52.93
2019-05-19T06:00:06.918Z,52.13
2019-05-19T06:02:35.988Z,51.09
2019-05-19T06:05:05.102Z,50.33
2019-05-19T06:07:34.185Z,48.07
2019-05-19T06:10:03.261Z,47.34
2019-05-19T06:12:32.347Z,46.49
2019-05-19T06:15:01.455Z,45.99
2019-05-19T06:17:30.535Z,45.19
2019-05-19T06:19:59.589Z,44.83
2019-05-19T06:22:28.587Z,44.37
2019-05-19T06:24:59.202Z,44.05
2019-05-19T06:27:28.822Z,44.61
2019-05-19T06:29:58.091Z,44.50
2019-05-19T06:32:33.795Z,44.14
2019-05-19T06:35:03.098Z,43.94
2019-05-19T06:37:32.328Z,44.08
2019-05-19T06:40:01.845Z,44.49
2019-05-19T06:42:30.937Z,44.34
2019-05-19T06:45:00.278Z,44.18
2019-05-19T06:47:29.431Z,44.64
2019-05-19T06:49:58.480Z,44.65
2019-05-19T06:52:27.710Z,44.49
2019-05-19T06:54:56.862Z,44.53
2019-05-19T06:57:25.961Z,44.43
2019-05-19T06:59:55.117Z,44.73
2019-05-19T07:02:24.352Z,43.61
2019-05-19T07:04:53.410Z,43.01
2019-05-19T07:07:22.521Z,42.96
2019-05-19T07:09:58.472Z,42.40
2019-05-19T07:12:22.423Z,42.63
2019-05-19T07:14:51.942Z,42.09
2019-05-19T07:17:22.120Z,41.58
2019-05-19T07:19:51.581Z,41.32
2019-05-19T07:22:20.914Z,41.10
2019-05-19T07:24:52.376Z,40.91
2019-05-19T07:27:21.827Z,41.04
2019-05-19T07:29:51.294Z,40.53
2019-05-19T07:32:20.996Z,40.37
2019-05-19T07:34:50.607Z,40.06
2019-05-19T07:37:28.897Z,39.81
2019-05-19T07:39:59.315Z,39.55
2019-05-19T07:42:28.854Z,39.57
2019-05-19T07:45:01.974Z,39.52
2019-05-19T07:47:31.771Z,38.99
2019-05-19T07:50:01.439Z,38.62
2019-05-19T07:52:31.032Z,37.94
2019-05-19T07:55:00.838Z,37.82
2019-05-19T07:57:32.535Z,36.71
2019-05-19T08:00:02.048Z,35.86
2019-05-19T08:02:31.624Z,35.02
2019-05-19T08:05:02.748Z,34.05
2019-05-19T08:07:34.419Z,33.40
2019-05-19T08:10:05.167Z,31.79
2019-05-19T08:12:34.495Z,31.10
2019-05-19T08:15:03.969Z,31.22
2019-05-19T08:17:33.163Z,30.39
2019-05-19T08:20:02.853Z,30.14
2019-05-19T08:22:33.519Z,29.13
2019-05-19T08:25:02.771Z,28.66
2019-05-19T08:27:32.007Z,28.34
2019-05-19T08:30:01.504Z,28.47
2019-05-19T08:32:31.428Z,28.29
2019-05-19T08:35:00.477Z,28.40
2019-05-19T08:37:29.602Z,28.49
2019-05-19T08:39:58.688Z,28.47
2019-05-19T08:42:27.871Z,27.75
2019-05-19T08:44:58.957Z,26.94
2019-05-19T08:47:28.076Z,26.77
2019-05-19T08:49:57.468Z,26.58
2019-05-19T08:52:26.638Z,25.18
2019-05-19T08:54:55.772Z,24.44
2019-05-19T08:57:25.360Z,24.62
2019-05-19T08:59:54.754Z,25.31
2019-05-19T09:02:30.174Z,25.32
2019-05-19T09:04:59.867Z,26.17
2019-05-19T09:07:30.382Z,26.00
2019-05-19T09:09:59.555Z,26.15
2019-05-19T09:12:28.773Z,24.92
2019-05-19T09:14:57.824Z,24.89
2019-05-19T09:17:27.326Z,24.02
2019-05-19T09:19:56.436Z,23.48
2019-05-19T09:22:25.925Z,23.10
2019-05-19T09:24:55.043Z,23.00
2019-05-19T09:27:24.132Z,22.57
2019-05-19T09:29:53.290Z,21.99
2019-05-19T09:32:22.638Z,21.91
2019-05-19T09:34:51.776Z,21.02
2019-05-19T09:37:20.842Z,21.03
2019-05-19T09:39:50.042Z,20.33
2019-05-19T09:42:19.267Z,20.58
2019-05-19T09:44:48.429Z,20.72
2019-05-19T09:47:17.560Z,20.28
2019-05-19T09:49:46.688Z,19.78
2019-05-19T09:52:17.215Z,18.96
2019-05-19T09:54:46.481Z,19.20
2019-05-19T09:57:15.533Z,19.61
2019-05-19T09:59:44.645Z,18.98
2019-05-19T10:02:13.809Z,19.01
2019-05-19T10:04:43.627Z,19.32
2019-05-19T10:07:15.401Z,19.86
2019-05-19T10:09:57.714Z,19.52
2019-05-19T10:12:27.778Z,20.02
2019-05-19T10:14:59.082Z,20.30
2019-05-19T10:17:28.300Z,20.59
2019-05-19T10:19:57.874Z,20.34
2019-05-19T10:22:27.105Z,21.00
2019-05-19T10:25:18.191Z,20.97
2019-05-19T10:27:27.233Z,21.34
2019-05-19T10:29:56.770Z,21.20
2019-05-19T10:32:25.949Z,20.94
2019-05-19T10:34:55.094Z,20.13
2019-05-19T10:37:24.262Z,19.85
2019-05-19T10:39:53.504Z,19.85
2019-05-19T10:42:22.825Z,21.14
2019-05-19T10:44:52.160Z,21.07
2019-05-19T10:47:21.487Z,21.51
2019-05-19T10:49:50.699Z,21.86
2019-05-19T10:52:19.935Z,21.38
2019-05-19T10:54:49.234Z,21.66
2019-05-19T10:57:18.277Z,22.04
2019-05-19T10:59:47.557Z,22.73
2019-05-19T11:02:16.767Z,22.41
2019-05-19T11:04:46.052Z,23.04
2019-05-19T11:07:15.195Z,23.04
2019-05-19T11:09:44.263Z,22.83
2019-05-19T11:12:13.410Z,22.90
2019-05-19T11:14:42.450Z,23.09
2019-05-19T11:17:11.594Z,23.25
2019-05-19T11:19:40.827Z,23.47
2019-05-19T11:22:09.988Z,23.34
2019-05-19T11:24:39.245Z,23.85
2019-05-19T11:27:10.050Z,23.86
2019-05-19T11:29:39.654Z,23.70
2019-05-19T11:32:14.757Z,23.89
2019-05-19T11:34:45.895Z,23.58
2019-05-19T11:37:16.922Z,23.73
2019-05-19T11:39:48.013Z,23.92
2019-05-19T11:42:21.459Z,24.05
2019-05-19T11:44:51.146Z,23.80
2019-05-19T11:47:20.574Z,24.00
2019-05-19T11:49:52.460Z,24.17
2019-05-19T11:52:22.867Z,23.71
2019-05-19T11:54:55.845Z,23.52
2019-05-19T11:57:25.657Z,23.34
2019-05-19T11:59:59.265Z,23.28
2019-05-19T12:02:28.861Z,23.23
2019-05-19T12:04:58.796Z,22.95
2019-05-19T12:07:29.833Z,23.07
2019-05-19T12:10:00.168Z,23.20
2019-05-19T12:12:29.535Z,23.00
2019-05-19T12:15:01.787Z,23.02
2019-05-19T12:17:31.856Z,23.07
2019-05-19T12:20:01.182Z,23.60
2019-05-19T12:22:31.447Z,23.87
2019-05-19T12:25:01.174Z,24.34
2019-05-19T12:27:30.864Z,24.50
2019-05-19T12:30:01.773Z,24.95
2019-05-19T12:32:31.611Z,25.18
2019-05-19T12:35:01.168Z,25.58
2019-05-19T12:37:33.728Z,26.22
2019-05-19T12:40:03.837Z,26.57
2019-05-19T12:42:36.134Z,26.79
2019-05-19T12:45:05.855Z,27.31
2019-05-19T12:47:37.497Z,27.90
2019-05-19T12:50:07.468Z,27.52
2019-05-19T12:52:38.365Z,27.36
2019-05-19T12:55:07.884Z,28.01
2019-05-19T12:57:38.457Z,28.37
2019-05-19T13:00:08.369Z,28.31
2019-05-19T13:02:38.581Z,28.49
2019-05-19T13:05:08.415Z,28.54
2019-05-19T13:07:43.661Z,29.55
2019-05-19T13:10:16.502Z,30.23
2019-05-19T13:12:49.254Z,30.91
2019-05-19T13:15:18.478Z,31.79
2019-05-19T13:17:47.750Z,32.73
2019-05-19T13:20:16.959Z,32.73
2019-05-19T13:22:46.191Z,32.89
2019-05-19T13:25:15.385Z,33.18
2019-05-19T13:27:44.721Z,33.35
2019-05-19T13:30:16.529Z,33.42
2019-05-19T13:32:46.171Z,33.61
2019-05-19T13:35:15.308Z,33.87
2019-05-19T13:37:44.822Z,34.25
2019-05-19T13:40:14.036Z,34.77
2019-05-19T13:42:43.275Z,35.04
2019-05-19T13:45:12.387Z,35.14
2019-05-19T13:47:41.630Z,35.42
2019-05-19T13:50:11.238Z,36.00
2019-05-19T13:52:40.569Z,36.16
2019-05-19T13:55:09.767Z,36.22
2019-05-19T13:57:38.950Z,36.54
2019-05-19T14:00:08.340Z,36.06
2019-05-19T14:02:37.674Z,36.52
2019-05-19T14:05:06.897Z,36.74
2019-05-19T14:07:38.854Z,36.73
2019-05-19T14:10:08.250Z,36.68
2019-05-19T14:12:40.519Z,36.81
2019-05-19T14:15:09.776Z,36.76
2019-05-19T14:17:40.071Z,37.20
2019-05-19T14:20:09.295Z,37.15
2019-05-19T14:22:38.535Z,37.03
2019-05-19T14:25:07.631Z,36.99
2019-05-19T14:27:38.601Z,36.85
2019-05-19T14:30:07.816Z,36.78
2019-05-19T14:32:39.743Z,36.85
2019-05-19T14:35:08.868Z,36.81
2019-05-19T14:37:38.068Z,36.74
2019-05-19T14:40:10.254Z,36.41
2019-05-19T14:42:50.083Z,36.29
2019-05-19T14:45:19.140Z,36.21
2019-05-19T14:47:48.446Z,36.18
2019-05-19T14:50:17.638Z,36.46
2019-05-19T14:52:47.064Z,36.71
2019-05-19T14:55:16.084Z,36.89
2019-05-19T14:57:47.982Z,36.97
2019-05-19T15:00:17.278Z,36.98
2019-05-19T15:02:46.392Z,37.05
2019-05-19T15:05:15.601Z,37.17
2019-05-19T15:07:44.675Z,37.32
2019-05-19T15:10:13.907Z,37.45
2019-05-19T15:12:43.265Z,37.60
2019-05-19T15:15:12.618Z,37.68
2019-05-19T15:17:41.987Z,37.69
2019-05-19T15:20:11.318Z,37.53
2019-05-19T15:22:40.597Z,37.01
2019-05-19T15:25:09.790Z,36.82
2019-05-19T15:27:39.257Z,36.77
2019-05-19T15:30:13.264Z,36.92
2019-05-19T15:32:39.359Z,36.88
2019-05-19T15:35:08.535Z,36.79
2019-05-19T15:37:37.670Z,36.24
2019-05-19T15:40:08.571Z,35.85
2019-05-19T15:42:37.747Z,35.85
2019-05-19T15:45:06.893Z,35.58
2019-05-19T15:47:38.948Z,35.75
2019-05-19T15:50:08.278Z,35.93
2019-05-19T15:52:37.647Z,35.62
2019-05-19T15:55:07.070Z,35.45
2019-05-19T15:57:36.444Z,35.27
2019-05-19T16:00:07.531Z,35.28
2019-05-19T16:02:36.881Z,35.18
2019-05-19T16:05:06.633Z,34.87
2019-05-19T16:07:36.131Z,34.80
2019-05-19T16:10:06.205Z,34.57
2019-05-19T16:13:01.351Z,34.61
2019-05-19T16:15:31.000Z,34.72
2019-05-19T16:18:02.584Z,34.39
2019-05-19T16:20:31.931Z,34.60
2019-05-19T16:23:01.151Z,34.89
2019-05-19T16:25:30.862Z,35.07
2019-05-19T16:28:05.199Z,34.93
2019-05-19T16:30:37.726Z,35.04
2019-05-19T16:33:09.465Z,34.98
2019-05-19T16:35:38.745Z,35.16
2019-05-19T16:38:07.969Z,35.26
2019-05-19T16:40:40.613Z,35.43
2019-05-19T16:43:28.558Z,35.49
2019-05-19T16:46:34.903Z,35.87
2019-05-19T16:49:28.530Z,35.77
2019-05-19T16:52:01.012Z,36.35
2019-05-19T16:54:36.932Z,36.48
2019-05-19T16:57:06.217Z,36.49
2019-05-19T16:59:39.324Z,36.76
2019-05-19T17:02:18.810Z,37.08
2019-05-19T17:04:59.057Z,36.98
2019-05-19T17:07:28.992Z,37.20
2019-05-19T17:09:58.419Z,37.05
2019-05-19T17:12:28.182Z,37.03
2019-05-19T17:15:06.372Z,36.91
2019-05-19T17:17:36.527Z,36.99
2019-05-19T17:20:06.493Z,36.78
2019-05-19T17:22:36.004Z,36.97
2019-05-19T17:25:20.587Z,37.19
2019-05-19T17:27:53.326Z,36.75
2019-05-19T17:30:22.669Z,36.87
2019-05-19T17:32:52.492Z,37.10
2019-05-19T17:35:21.865Z,36.79
2019-05-19T17:37:51.612Z,36.46
2019-05-19T17:40:21.066Z,36.58
2019-05-19T17:42:50.251Z,36.30
2019-05-19T17:45:20.142Z,35.81
2019-05-19T17:47:49.290Z,35.50
2019-05-19T17:50:26.458Z,36.08
2019-05-19T17:53:13.968Z,36.63
2019-05-19T17:55:44.971Z,36.65
2019-05-19T17:58:21.717Z,37.09
2019-05-19T18:00:52.547Z,36.83
2019-05-19T18:03:30.881Z,36.92
2019-05-19T18:06:02.527Z,36.97
2019-05-19T18:08:37.563Z,37.11
2019-05-19T18:11:08.468Z,37.33
2019-05-19T18:13:46.110Z,37.21
2019-05-19T18:16:18.930Z,37.40
2019-05-19T18:18:48.445Z,37.54
2019-05-19T18:21:31.429Z,37.73
2019-05-19T18:24:01.353Z,38.11
2019-05-19T18:26:42.652Z,38.35
2019-05-19T18:29:30.270Z,38.54
2019-05-19T18:31:53.611Z,38.75
2019-05-19T18:34:36.051Z,38.93
2019-05-19T18:37:06.449Z,38.96
2019-05-19T18:39:39.938Z,38.93
2019-05-19T18:42:20.503Z,38.90
2019-05-19T18:45:21.396Z,38.80
2019-05-19T18:48:11.019Z,38.86
2019-05-19T18:50:54.719Z,38.89
2019-05-19T18:53:55.399Z,38.95
2019-05-19T18:56:41.587Z,39.18
2019-05-19T18:59:17.498Z,39.33
2019-05-19T19:01:49.276Z,39.62
2019-05-19T19:04:50.458Z,39.89
2019-05-19T19:07:27.003Z,40.06
2019-05-19T19:10:33.986Z,40.35
2019-05-19T19:13:23.687Z,40.63
2019-05-19T19:16:23.335Z,40.88
2019-05-19T19:19:11.137Z,41.16
2019-05-19T19:21:51.566Z,41.42
2019-05-19T19:24:38.653Z,41.71
2019-05-19T19:27:35.010Z,42.03
2019-05-19T19:30:23.008Z,42.34
2019-05-19T19:33:10.820Z,42.61
2019-05-19T19:35:54.966Z,42.76
2019-05-19T19:38:42.293Z,43.05
2019-05-19T19:41:44.271Z,43.22
2019-05-19T19:44:19.784Z,43.37
2019-05-19T19:46:49.006Z,43.55
2019-05-19T19:49:18.164Z,43.76
2019-05-19T19:51:47.329Z,43.89
2019-05-19T19:54:16.795Z,44.06
2019-05-19T19:56:46.004Z,44.24
2019-05-19T19:59:15.372Z,44.30
2019-05-19T20:01:44.668Z,44.42
2019-05-19T20:04:13.918Z,44.66
2019-05-19T20:06:42.995Z,44.69
2019-05-19T20:09:12.135Z,44.72
2019-05-19T20:11:41.298Z,44.84
2019-05-19T20:14:10.390Z,45.04
2019-05-19T20:16:39.464Z,45.26
2019-05-19T20:19:08.646Z,45.34
2019-05-19T20:21:37.818Z,45.54
2019-05-19T20:24:07.052Z,45.77
2019-05-19T20:26:36.283Z,45.92
2019-05-19T20:29:05.535Z,45.91
2019-05-19T20:31:36.578Z,45.98
2019-05-19T20:34:05.839Z,46.17
2019-05-19T20:36:35.280Z,46.29
2019-05-19T20:39:05.786Z,46.40
2019-05-19T20:41:35.107Z,46.51
2019-05-19T20:44:04.635Z,46.57
2019-05-19T20:46:33.950Z,46.74
2019-05-19T20:49:03.329Z,46.96
2019-05-19T20:51:35.094Z,47.07
2019-05-19T20:54:04.384Z,47.22
2019-05-19T20:56:33.700Z,47.35
2019-05-19T20:59:02.949Z,47.58
2019-05-19T21:01:32.088Z,47.75
2019-05-19T21:04:01.478Z,47.93
2019-05-19T21:06:30.678Z,48.09
2019-05-19T21:08:59.832Z,48.29
2019-05-19T21:11:29.070Z,48.49
2019-05-19T21:13:58.239Z,48.69
2019-05-19T21:16:27.564Z,48.98
2019-05-19T21:18:56.697Z,49.24
2019-05-19T21:21:25.812Z,49.40
2019-05-19T21:23:54.920Z,49.64
2019-05-19T21:26:24.181Z,49.83
2019-05-19T21:28:53.344Z,49.96
2019-05-19T21:31:22.549Z,50.06
2019-05-19T21:33:51.615Z,50.24
2019-05-19T21:36:20.783Z,50.34
2019-05-19T21:38:49.932Z,50.58
2019-05-19T21:41:19.118Z,50.84
2019-05-19T21:43:48.179Z,51.08
2019-05-19T21:46:17.422Z,51.19
2019-05-19T21:48:46.665Z,51.38
2019-05-19T21:51:15.787Z,51.42
2019-05-19T21:53:45.472Z,51.56
2019-05-19T21:56:14.899Z,51.65
2019-05-19T21:58:44.382Z,51.82
2019-05-19T22:01:22.605Z,51.93
2019-05-19T22:03:44.897Z,52.07
2019-05-19T22:06:14.221Z,52.17
2019-05-19T22:08:43.620Z,52.27
2019-05-19T22:11:13.091Z,52.45
2019-05-19T22:13:42.698Z,52.44
2019-05-19T22:16:13.738Z,52.57
2019-05-19T22:18:43.150Z,52.73
2019-05-19T22:21:12.310Z,52.76
2019-05-19T22:23:41.557Z,52.80
2019-05-19T22:26:10.890Z,52.83
2019-05-19T22:28:39.952Z,52.90
2019-05-19T22:31:09.046Z,53.01
2019-05-19T22:33:38.080Z,53.10
2019-05-19T22:36:07.187Z,53.14
2019-05-19T22:38:36.357Z,53.26
2019-05-19T22:41:05.517Z,53.34
2019-05-19T22:43:34.730Z,53.43
2019-05-19T22:46:03.863Z,53.44
2019-05-19T22:48:32.981Z,53.54
2019-05-19T22:51:02.037Z,53.62
2019-05-19T22:53:32.715Z,53.73
2019-05-19T22:56:01.972Z,53.90
2019-05-19T22:58:31.142Z,54.07
2019-05-19T23:01:00.179Z,54.21
2019-05-19T23:03:30.123Z,54.36
2019-05-19T23:05:59.326Z,54.47
2019-05-19T23:08:28.438Z,54.54
2019-05-19T23:10:57.518Z,54.62
2019-05-19T23:13:26.663Z,54.76
2019-05-19T23:15:55.724Z,54.89
2019-05-19T23:18:24.959Z,54.87
2019-05-19T23:20:54.117Z,54.91
2019-05-19T23:23:23.245Z,55.02
2019-05-19T23:25:52.270Z,55.17
2019-05-19T23:28:21.389Z,55.22
2019-05-19T23:30:50.473Z,55.29
2019-05-19T23:33:19.677Z,55.30
2019-05-19T23:35:48.746Z,55.32
2019-05-19T23:38:17.877Z,55.35
2019-05-19T23:40:46.952Z,55.46
2019-05-19T23:43:16.059Z,55.59
2019-05-19T23:45:45.191Z,55.63
2019-05-19T23:48:14.318Z,55.67
2019-05-19T23:50:43.354Z,55.65
2019-05-19T23:53:12.428Z,55.68
2019-05-19T23:55:41.524Z,55.71
2019-05-19T23:58:10.783Z,55.78
